createdAt,value
2022-08-06T00:00:06.839Z,56.58
2022-08-06T00:03:04.901Z,56.31
2022-08-06T00:05:36.942Z,56.37
2022-08-06T00:08:08.830Z,56.43
2022-08-06T00:10:38.338Z,56.78
2022-08-06T00:13:14.646Z,56.81
2022-08-06T00:16:09.022Z,57.22
2022-08-06T00:18:32.572Z,57.34
2022-08-06T00:21:01.451Z,57.04
2022-08-06T00:23:35.181Z,57.25
2022-08-06T00:26:19.054Z,57.36
2022-08-06T00:28:48.520Z,57.59
2022-08-06T00:31:17.089Z,57.71
2022-08-06T00:33:56.556Z,57.79
2022-08-06T00:36:28.176Z,57.82
2022-08-06T00:39:07.512Z,58.00
2022-08-06T00:41:42.483Z,58.31
2022-08-06T00:44:30.863Z,58.08
2022-08-06T00:47:01.131Z,58.23
2022-08-06T00:49:49.110Z,58.26
2022-08-06T00:52:23.142Z,58.48
2022-08-06T00:54:55.253Z,58.61
2022-08-06T00:57:26.909Z,58.60
2022-08-06T00:59:59.078Z,59.13
2022-08-06T01:02:30.312Z,58.64
2022-08-06T01:05:07.263Z,58.71
2022-08-06T01:07:51.876Z,58.58
2022-08-06T01:10:27.276Z,58.76
2022-08-06T01:13:00.255Z,58.72
2022-08-06T01:16:07.798Z,58.69
2022-08-06T01:18:30.544Z,58.81
2022-08-06T01:21:58.579Z,59.32
2022-08-06T01:24:03.195Z,58.99
2022-08-06T01:26:45.232Z,58.94
2022-08-06T01:29:15.984Z,58.75
2022-08-06T01:31:44.735Z,58.55
2022-08-06T01:34:31.215Z,58.47
2022-08-06T01:37:10.851Z,58.56
2022-08-06T01:40:01.729Z,58.61
2022-08-06T01:42:34.949Z,58.81
2022-08-06T01:45:10.157Z,58.82
2022-08-06T01:47:53.773Z,59.06
2022-08-06T01:50:41.390Z,59.18
2022-08-06T01:53:30.128Z,59.77
2022-08-06T01:56:13.736Z,59.97
2022-08-06T01:58:56.869Z,60.38
2022-08-06T02:01:28.137Z,60.09
2022-08-06T02:04:20.839Z,60.77
2022-08-06T02:06:52.530Z,61.03
2022-08-06T02:09:27.751Z,60.61
2022-08-06T02:12:07.241Z,60.71
2022-08-06T02:14:43.516Z,61.20
2022-08-06T02:17:15.572Z,61.21
2022-08-06T02:20:03.988Z,61.13
2022-08-06T02:22:42.372Z,61.22
2022-08-06T02:25:21.792Z,61.19
2022-08-06T02:28:00.137Z,61.15
2022-08-06T02:30:42.526Z,61.60
2022-08-06T02:33:18.109Z,61.62
2022-08-06T02:35:52.313Z,61.69
2022-08-06T02:38:28.576Z,61.80
2022-08-06T02:41:23.749Z,61.85
2022-08-06T02:44:07.711Z,61.91
2022-08-06T02:46:51.885Z,61.76
2022-08-06T02:49:29.328Z,62.14
2022-08-06T02:52:32.624Z,62.18
2022-08-06T02:55:15.462Z,62.17
2022-08-06T02:57:58.293Z,62.28
2022-08-06T03:00:29.842Z,62.32
2022-08-06T03:03:02.924Z,62.41
2022-08-06T03:05:55.661Z,62.91
2022-08-06T03:08:28.218Z,62.45
2022-08-06T03:10:59.837Z,62.97
2022-08-06T03:13:36.290Z,62.70
2022-08-06T03:16:23.735Z,63.00
2022-08-06T03:19:54.764Z,62.52
2022-08-06T03:21:55.486Z,62.68
2022-08-06T03:24:27.920Z,62.68
2022-08-06T03:27:00.691Z,62.66
2022-08-06T03:29:30.597Z,62.29
2022-08-06T03:32:13.541Z,62.33
2022-08-06T03:34:52.322Z,62.41
2022-08-06T03:37:45.249Z,62.43
2022-08-06T03:40:14.148Z,62.18
2022-08-06T03:42:43.934Z,62.67
2022-08-06T03:45:35.778Z,62.52
2022-08-06T03:48:07.131Z,62.27
2022-08-06T03:50:43.098Z,62.26
2022-08-06T03:53:25.046Z,62.19
2022-08-06T03:55:59.605Z,62.06
2022-08-06T03:58:30.106Z,61.72
2022-08-06T04:01:11.024Z,61.46
2022-08-06T04:03:41.275Z,61.27
2022-08-06T04:06:16.751Z,61.12
2022-08-06T04:08:50.544Z,60.91
2022-08-06T04:12:12.923Z,60.78
2022-08-06T04:14:10.720Z,60.50
2022-08-06T04:16:41.695Z,60.28
2022-08-06T04:19:15.767Z,60.08
2022-08-06T04:23:08.560Z,59.85
2022-08-06T04:24:34.238Z,59.81
2022-08-06T04:27:09.703Z,59.44
2022-08-06T04:29:56.750Z,59.19
2022-08-06T04:32:32.275Z,59.30
2022-08-06T04:36:07.268Z,59.10
2022-08-06T04:37:57.013Z,58.50
2022-08-06T04:40:35.795Z,58.00
2022-08-06T04:43:12.316Z,57.68
2022-08-06T04:46:18.587Z,56.78
2022-08-06T04:48:34.466Z,55.64
2022-08-06T04:51:10.439Z,55.26
2022-08-06T04:53:58.458Z,54.68
2022-08-06T04:56:33.312Z,54.10
2022-08-06T04:59:07.846Z,53.29
2022-08-06T05:01:40.685Z,52.68
2022-08-06T05:04:27.002Z,51.81
2022-08-06T05:07:10.560Z,50.75
2022-08-06T05:09:43.916Z,50.31
2022-08-06T05:12:34.533Z,49.74
2022-08-06T05:15:38.132Z,49.64
2022-08-06T05:19:21.256Z,48.14
2022-08-06T05:21:22.138Z,47.82
2022-08-06T05:24:11.484Z,46.65
2022-08-06T05:26:40.538Z,46.04
2022-08-06T05:29:12.337Z,45.72
2022-08-06T05:31:41.434Z,45.71
2022-08-06T05:34:16.470Z,45.22
2022-08-06T05:36:48.462Z,45.01
2022-08-06T05:39:57.327Z,44.85
2022-08-06T05:42:10.182Z,44.88
2022-08-06T05:44:39.689Z,44.71
2022-08-06T05:47:14.534Z,44.91
2022-08-06T05:49:58.547Z,44.35
2022-08-06T05:52:55.425Z,43.70
2022-08-06T05:55:38.510Z,43.60
2022-08-06T05:58:21.361Z,43.48
2022-08-06T06:00:55.153Z,43.20
2022-08-06T06:03:33.537Z,42.80
2022-08-06T06:06:17.522Z,41.99
2022-08-06T06:08:57.864Z,42.14
2022-08-06T06:11:55.192Z,42.09
2022-08-06T06:14:41.898Z,41.88
2022-08-06T06:17:40.130Z,41.39
2022-08-06T06:20:57.904Z,41.39
2022-08-06T06:24:12.836Z,40.09
2022-08-06T06:26:51.905Z,39.54
2022-08-06T06:30:07.262Z,39.12
2022-08-06T06:32:49.166Z,38.66
2022-08-06T06:35:58.394Z,38.71
2022-08-06T06:38:43.528Z,37.95
2022-08-06T06:41:37.930Z,37.50
2022-08-06T06:44:17.302Z,36.96
2022-08-06T06:46:58.929Z,36.10
2022-08-06T06:50:00.050Z,36.08
2022-08-06T06:54:04.645Z,35.78
2022-08-06T06:57:19.480Z,34.67
2022-08-06T07:00:04.825Z,34.75
2022-08-06T07:02:47.667Z,34.23
2022-08-06T07:06:02.129Z,34.55
2022-08-06T07:09:15.259Z,34.42
2022-08-06T07:12:03.288Z,34.08
2022-08-06T07:14:36.270Z,33.78
2022-08-06T07:17:46.278Z,33.90
2022-08-06T07:20:00.789Z,33.52
2022-08-06T07:22:30.902Z,34.05
2022-08-06T07:25:06.370Z,33.44
2022-08-06T07:27:45.108Z,33.38
2022-08-06T07:30:25.631Z,33.17
2022-08-06T07:32:55.042Z,32.78
2022-08-06T07:35:25.496Z,32.39
2022-08-06T07:37:56.113Z,32.37
2022-08-06T07:40:32.448Z,32.54
2022-08-06T07:43:23.821Z,32.28
2022-08-06T07:45:56.598Z,31.96
2022-08-06T07:48:32.484Z,31.89
2022-08-06T07:51:05.044Z,31.56
2022-08-06T07:53:52.919Z,31.16
2022-08-06T07:56:27.609Z,31.39
2022-08-06T07:58:59.335Z,31.45
2022-08-06T08:01:36.520Z,30.75
2022-08-06T08:04:34.586Z,30.85
2022-08-06T08:07:12.929Z,30.10
2022-08-06T08:10:01.726Z,30.43
2022-08-06T08:12:35.253Z,29.96
2022-08-06T08:15:17.596Z,30.05
2022-08-06T08:17:57.712Z,28.99
2022-08-06T08:20:34.402Z,28.79
2022-08-06T08:23:08.536Z,28.20
2022-08-06T08:25:57.676Z,28.98
2022-08-06T08:28:27.506Z,28.40
2022-08-06T08:31:00.264Z,28.92
2022-08-06T08:33:44.726Z,28.36
2022-08-06T08:36:15.179Z,27.82
2022-08-06T08:38:45.606Z,28.71
2022-08-06T08:41:23.101Z,29.11
2022-08-06T08:44:13.089Z,29.12
2022-08-06T08:46:57.618Z,28.56
2022-08-06T08:49:47.344Z,28.84
2022-08-06T08:52:18.780Z,29.28
2022-08-06T08:54:54.942Z,28.96
2022-08-06T08:59:02.534Z,28.74
2022-08-06T09:00:22.756Z,28.32
2022-08-06T09:02:57.248Z,27.51
2022-08-06T09:05:26.687Z,27.50
2022-08-06T09:08:04.344Z,28.36
2022-08-06T09:10:33.428Z,28.65
2022-08-06T09:13:22.791Z,28.23
2022-08-06T09:15:56.433Z,27.53
2022-08-06T09:18:28.187Z,27.22
2022-08-06T09:21:01.853Z,27.36
2022-08-06T09:23:57.642Z,26.72
2022-08-06T09:26:52.449Z,26.27
2022-08-06T09:29:23.690Z,26.67
2022-08-06T09:32:08.570Z,27.09
2022-08-06T09:34:50.230Z,26.08
2022-08-06T09:37:30.335Z,26.45
2022-08-06T09:40:20.011Z,25.49
2022-08-06T09:42:51.931Z,25.89
2022-08-06T09:45:42.112Z,24.93
2022-08-06T09:48:17.307Z,24.97
2022-08-06T09:50:51.466Z,24.26
2022-08-06T09:53:22.662Z,24.39
2022-08-06T09:55:57.850Z,25.30
2022-08-06T09:59:33.503Z,26.09
2022-08-06T10:04:04.334Z,26.06
2022-08-06T10:07:06.370Z,25.01
2022-08-06T10:09:41.439Z,25.60
2022-08-06T10:12:26.521Z,24.60
2022-08-06T10:14:56.241Z,25.45
2022-08-06T10:17:26.108Z,24.81
2022-08-06T10:20:18.405Z,24.39
2022-08-06T10:22:58.836Z,24.51
2022-08-06T10:25:31.111Z,24.59
2022-08-06T10:28:15.640Z,25.26
2022-08-06T10:30:45.671Z,25.40
2022-08-06T10:33:22.538Z,26.17
2022-08-06T10:36:08.695Z,25.23
2022-08-06T10:38:52.522Z,25.14
2022-08-06T10:41:59.582Z,25.65
2022-08-06T10:45:13.393Z,25.47
2022-08-06T10:48:59.271Z,25.99
2022-08-06T10:50:44.624Z,26.42
2022-08-06T10:54:01.355Z,26.77
2022-08-06T10:57:11.957Z,27.39
2022-08-06T10:59:53.666Z,27.78
2022-08-06T11:02:57.027Z,27.68
2022-08-06T11:05:48.112Z,27.78
2022-08-06T11:08:56.184Z,27.19
2022-08-06T11:11:42.764Z,26.38
2022-08-06T11:14:15.048Z,27.00
2022-08-06T11:16:59.091Z,26.80
2022-08-06T11:19:46.667Z,26.04
2022-08-06T11:22:38.880Z,26.24
2022-08-06T11:25:25.553Z,25.74
2022-08-06T11:28:05.744Z,26.45
2022-08-06T11:30:52.320Z,27.00
2022-08-06T11:33:36.699Z,26.15
2022-08-06T11:36:09.761Z,26.64
2022-08-06T11:38:51.727Z,26.73
2022-08-06T11:41:51.752Z,27.12
2022-08-06T11:44:27.359Z,27.32
2022-08-06T11:47:30.631Z,27.50
2022-08-06T11:50:27.615Z,27.75
2022-08-06T11:52:56.588Z,27.99
2022-08-06T11:55:27.063Z,28.75
2022-08-06T11:58:26.154Z,29.32
2022-08-06T12:00:59.744Z,28.69
2022-08-06T12:03:45.039Z,28.14
2022-08-06T12:06:29.207Z,27.24
2022-08-06T12:09:23.841Z,26.11
2022-08-06T12:12:23.866Z,25.52
2022-08-06T12:14:57.369Z,25.02
2022-08-06T12:17:44.692Z,24.61
2022-08-06T12:20:33.952Z,23.87
2022-08-06T12:23:07.218Z,23.56
2022-08-06T12:25:45.017Z,22.73
2022-08-06T12:28:18.309Z,22.97
2022-08-06T12:30:52.301Z,23.59
2022-08-06T12:33:24.858Z,23.79
2022-08-06T12:36:02.340Z,23.81
2022-08-06T12:38:34.244Z,23.12
2022-08-06T12:42:05.863Z,23.27
2022-08-06T12:46:05.942Z,23.80
2022-08-06T12:48:23.111Z,24.50
2022-08-06T12:51:15.832Z,23.46
2022-08-06T12:53:54.894Z,23.91
2022-08-06T12:56:31.950Z,24.20
2022-08-06T12:59:05.677Z,24.82
2022-08-06T13:02:10.131Z,25.12
2022-08-06T13:04:31.380Z,25.40
2022-08-06T13:07:02.925Z,26.00
2022-08-06T13:09:35.789Z,26.23
2022-08-06T13:14:02.105Z,26.58
2022-08-06T13:15:22.662Z,27.24
2022-08-06T13:18:41.425Z,28.48
2022-08-06T13:21:16.273Z,28.14
2022-08-06T13:23:49.430Z,28.07
2022-08-06T13:26:29.952Z,27.89
2022-08-06T13:30:34.536Z,28.58
2022-08-06T13:32:19.128Z,28.34
2022-08-06T13:34:59.355Z,28.37
2022-08-06T13:38:16.496Z,27.37
2022-08-06T13:40:56.752Z,27.37
2022-08-06T13:43:55.160Z,27.48
2022-08-06T13:46:28.840Z,27.84
2022-08-06T13:49:01.554Z,28.09
2022-08-06T13:51:35.344Z,27.98
2022-08-06T13:54:14.137Z,28.43
2022-08-06T13:56:48.801Z,28.18
2022-08-06T13:59:40.336Z,27.52
2022-08-06T14:02:12.746Z,27.56
2022-08-06T14:04:50.662Z,27.05
2022-08-06T14:07:20.832Z,26.24
2022-08-06T14:10:08.090Z,26.05
2022-08-06T14:12:40.371Z,25.75
2022-08-06T14:15:12.872Z,25.44
2022-08-06T14:17:45.928Z,25.67
2022-08-06T14:20:18.816Z,24.99
2022-08-06T14:22:55.530Z,24.45
2022-08-06T14:25:28.443Z,23.75
2022-08-06T14:27:58.485Z,23.47
2022-08-06T14:31:29.689Z,22.99
2022-08-06T14:35:04.730Z,23.60
2022-08-06T14:38:34.615Z,23.78
2022-08-06T14:41:50.292Z,23.30
2022-08-06T14:44:31.153Z,23.32
2022-08-06T14:47:00.291Z,23.53
2022-08-06T14:49:33.555Z,24.21
2022-08-06T14:52:24.121Z,24.55
2022-08-06T14:54:55.989Z,25.30
2022-08-06T14:58:03.891Z,25.98
2022-08-06T15:00:34.888Z,26.75
2022-08-06T15:03:13.548Z,27.24
2022-08-06T15:06:00.082Z,27.23
2022-08-06T15:08:34.182Z,27.43
2022-08-06T15:11:06.400Z,27.70
2022-08-06T15:13:43.557Z,27.14
2022-08-06T15:16:47.884Z,27.05
2022-08-06T15:19:21.018Z,26.56
2022-08-06T15:22:00.318Z,26.06
2022-08-06T15:24:30.634Z,25.46
2022-08-06T15:26:59.333Z,25.49
2022-08-06T15:29:34.689Z,25.53
2022-08-06T15:32:17.630Z,24.62
2022-08-06T15:34:48.834Z,24.00
2022-08-06T15:38:18.555Z,23.86
2022-08-06T15:41:52.166Z,23.75
2022-08-06T15:44:23.792Z,23.50
2022-08-06T15:46:59.677Z,23.36
2022-08-06T15:50:00.904Z,23.28
2022-08-06T15:52:18.203Z,23.50
2022-08-06T15:54:47.809Z,23.23
2022-08-06T15:57:19.818Z,23.35
2022-08-06T16:00:17.754Z,23.16
2022-08-06T16:02:50.689Z,23.14
2022-08-06T16:06:25.918Z,23.05
2022-08-06T16:08:59.587Z,23.29
2022-08-06T16:11:50.849Z,23.53
2022-08-06T16:14:19.906Z,23.88
2022-08-06T16:17:01.952Z,24.05
2022-08-06T16:19:30.843Z,24.30
2022-08-06T16:22:03.113Z,24.43
2022-08-06T16:24:32.420Z,24.53
2022-08-06T16:27:05.196Z,24.96
2022-08-06T16:29:35.817Z,25.13
2022-08-06T16:32:05.089Z,25.34
2022-08-06T16:34:37.107Z,25.59
2022-08-06T16:37:28.567Z,25.99
2022-08-06T16:42:44.594Z,26.65
2022-08-06T16:45:19.390Z,26.94
2022-08-06T16:48:21.804Z,27.26
2022-08-06T16:50:42.212Z,27.67
2022-08-06T16:54:07.779Z,28.01
2022-08-06T16:56:01.658Z,28.30
2022-08-06T16:58:34.341Z,28.55
2022-08-06T17:02:14.306Z,28.55
2022-08-06T17:03:59.045Z,29.04
2022-08-06T17:09:21.251Z,30.33
2022-08-06T17:11:58.250Z,30.51
2022-08-06T17:14:33.010Z,31.04
2022-08-06T17:20:01.160Z,32.21
2022-08-06T17:22:32.139Z,32.83
2022-08-06T17:25:01.133Z,33.48
2022-08-06T17:27:43.527Z,33.81
2022-08-06T17:30:19.055Z,34.30
2022-08-06T17:32:48.482Z,34.89
2022-08-06T17:35:17.794Z,35.24
2022-08-06T17:37:51.593Z,35.42
2022-08-06T17:40:31.185Z,35.60
2022-08-06T17:43:12.525Z,36.25
2022-08-06T17:45:52.620Z,36.73
2022-08-06T17:48:38.468Z,37.14
2022-08-06T17:51:09.727Z,37.48
2022-08-06T17:53:53.800Z,38.00
2022-08-06T17:56:30.806Z,38.47
2022-08-06T17:59:59.876Z,38.44
2022-08-06T18:03:50.312Z,38.89
2022-08-06T18:07:12.227Z,40.11
2022-08-06T18:10:16.410Z,40.68
2022-08-06T18:12:48.569Z,41.28
2022-08-06T18:20:10.145Z,42.61
2022-08-06T18:23:39.763Z,43.23
2022-08-06T18:27:53.789Z,43.26
2022-08-06T18:31:00.192Z,43.22
2022-08-06T18:34:29.898Z,44.05
2022-08-06T18:37:05.610Z,44.14
2022-08-06T18:40:20.277Z,44.13
2022-08-06T18:42:42.459Z,44.67
2022-08-06T18:45:16.988Z,45.66
2022-08-06T18:47:49.670Z,45.15
2022-08-06T18:50:33.367Z,45.01
2022-08-06T18:53:02.095Z,45.19
2022-08-06T18:55:53.883Z,45.75
2022-08-06T18:58:20.090Z,45.93
2022-08-06T19:00:52.682Z,46.32
2022-08-06T19:03:37.754Z,47.54
2022-08-06T19:06:11.308Z,48.46
2022-08-06T19:08:41.121Z,48.58
2022-08-06T19:11:09.728Z,48.65
2022-08-06T19:14:17.163Z,48.32
2022-08-06T19:16:30.739Z,48.91
2022-08-06T19:18:59.730Z,48.70
2022-08-06T19:21:28.623Z,49.31
2022-08-06T19:24:02.803Z,49.33
2022-08-06T19:26:33.584Z,50.13
2022-08-06T19:29:02.673Z,50.18
2022-08-06T19:31:41.857Z,50.20
2022-08-06T19:34:14.297Z,50.80
2022-08-06T19:36:45.388Z,51.64
2022-08-06T19:39:53.950Z,51.59
2022-08-06T19:42:13.390Z,52.07
2022-08-06T19:45:04.214Z,52.45
2022-08-06T19:47:47.714Z,51.98
2022-08-06T19:50:19.393Z,52.21
2022-08-06T19:52:49.849Z,52.93
2022-08-06T19:56:06.477Z,53.96
2022-08-06T19:58:19.910Z,52.77
2022-08-06T20:01:32.576Z,54.22
2022-08-06T20:03:57.884Z,54.31
2022-08-06T20:06:29.549Z,53.31
2022-08-06T20:09:29.332Z,53.51
2022-08-06T20:12:11.182Z,53.36
2022-08-06T20:14:40.445Z,54.17
2022-08-06T20:17:12.967Z,53.75
2022-08-06T20:20:06.711Z,53.50
2022-08-06T20:22:32.049Z,53.92
2022-08-06T20:25:17.943Z,53.57
2022-08-06T20:29:10.725Z,53.26
2022-08-06T20:30:39.891Z,53.25
2022-08-06T20:33:23.640Z,52.76
2022-08-06T20:35:57.852Z,53.45
2022-08-06T20:38:33.538Z,53.35
2022-08-06T20:41:58.263Z,53.41
2022-08-06T20:44:25.407Z,53.48
2022-08-06T20:47:57.266Z,53.45
2022-08-06T20:50:28.112Z,53.29
2022-08-06T20:52:57.921Z,53.01
2022-08-06T20:55:28.493Z,53.38
2022-08-06T20:58:07.300Z,52.95
2022-08-06T21:00:36.290Z,52.64
2022-08-06T21:05:11.458Z,52.72
2022-08-06T21:05:53.975Z,52.56
2022-08-06T21:08:26.574Z,52.60
2022-08-06T21:11:00.470Z,52.24
2022-08-06T21:13:36.731Z,52.73
2022-08-06T21:16:28.737Z,52.37
2022-08-06T21:19:07.456Z,51.97
2022-08-06T21:21:39.052Z,52.13
2022-08-06T21:24:08.979Z,52.06
2022-08-06T21:26:38.157Z,52.29
2022-08-06T21:29:14.517Z,52.45
2022-08-06T21:31:59.045Z,52.50
2022-08-06T21:34:30.648Z,52.43
2022-08-06T21:37:02.100Z,52.73
2022-08-06T21:39:56.616Z,52.76
2022-08-06T21:42:27.114Z,53.09
2022-08-06T21:44:59.489Z,52.76
2022-08-06T21:47:36.592Z,52.86
2022-08-06T21:50:20.063Z,52.82
2022-08-06T21:52:55.764Z,53.06
2022-08-06T21:56:38.512Z,52.91
2022-08-06T21:58:13.308Z,53.76
2022-08-06T22:00:53.950Z,53.06
2022-08-06T22:04:34.702Z,53.14
2022-08-06T22:06:20.661Z,53.48
2022-08-06T22:09:01.060Z,53.91
2022-08-06T22:12:37.668Z,53.94
2022-08-06T22:14:29.000Z,54.31
2022-08-06T22:17:06.075Z,55.12
2022-08-06T22:19:39.264Z,55.10
2022-08-06T22:22:11.335Z,55.21
2022-08-06T22:24:49.927Z,55.16
2022-08-06T22:27:20.557Z,55.61
2022-08-06T22:30:08.833Z,55.62
2022-08-06T22:32:42.436Z,55.81
2022-08-06T22:35:14.299Z,56.04
2022-08-06T22:38:19.740Z,56.12
2022-08-06T22:40:38.444Z,56.26
2022-08-06T22:43:18.295Z,56.02
2022-08-06T22:46:04.672Z,56.06
2022-08-06T22:48:35.474Z,56.41
2022-08-06T22:51:15.753Z,56.66
2022-08-06T22:54:26.273Z,57.15
2022-08-06T22:56:38.366Z,57.17
2022-08-06T22:59:31.365Z,57.44
2022-08-06T23:02:07.609Z,57.63
2022-08-06T23:04:46.382Z,57.73
2022-08-06T23:07:21.409Z,58.14
2022-08-06T23:09:59.546Z,58.25
2022-08-06T23:12:31.314Z,58.42
2022-08-06T23:15:19.931Z,58.59
2022-08-06T23:18:00.349Z,58.64
2022-08-06T23:20:34.542Z,58.85
2022-08-06T23:23:04.819Z,58.91
2022-08-06T23:26:34.137Z,59.19
2022-08-06T23:34:00.238Z,59.37
2022-08-06T23:36:30.319Z,60.13
2022-08-06T23:38:59.050Z,60.54
2022-08-06T23:42:00.519Z,61.17
2022-08-06T23:44:18.417Z,61.97
2022-08-06T23:46:51.045Z,62.60
2022-08-06T23:49:27.349Z,62.60
2022-08-06T23:52:03.314Z,63.33
2022-08-06T23:54:33.522Z,63.44
2022-08-06T23:57:03.778Z,63.38
2022-08-06T23:59:45.327Z,63.92
